Terminal Aerodrome Forecast
Issued by NWS

Current Version | Previous Version | Text Only | Print | Product List | Glossary On
Versions: 1 2 3 4 5 6 7 8 9 10 11 12 13 14 15
000
FTUS41 KPBZ 212322
TAFHLG
TAF
KHLG 212322Z 2200/2224 23005KT P6SM BKN200
     FM221200 20007KT P6SM SCT250
     FM221900 23011KT P6SM -SHRA VCTS BKN070CB
     FM222200 23009KT 5SM -SHRA VCTS OVC040CB=

USA.gov is the U.S. government's official web portal to all federal, state and local government web resources and services.